sensor_id;sensor_type;location;lat;lon;timestamp;pressure;altitude;pressure_sealevel;temperature;humidity
35248;BME280;21380;52.194;20.520;2023-04-23T09:28:19;100069.81;;;19.14;39.40
35248;BME280;21380;52.194;20.520;2023-04-23T09:30:47;100076.75;;;19.25;39.94
35248;BME280;21380;52.194;20.520;2023-04-23T09:33:15;100077.63;;;19.29;40.08
35248;BME280;21380;52.194;20.520;2023-04-23T09:35:41;100076.75;;;19.32;40.21
35248;BME280;21380;52.194;20.520;2023-04-23T09:38:08;100066.31;;;19.28;40.58
35248;BME280;21380;52.194;20.520;2023-04-23T09:40:35;100068.06;;;19.30;40.94
35248;BME280;21380;52.194;20.520;2023-04-23T09:43:03;100075.88;;;19.37;41.28
35248;BME280;21380;52.194;20.520;2023-04-23T09:45:30;100065.41;;;19.33;41.21
35248;BME280;21380;52.194;20.520;2023-04-23T09:47:58;100054.94;;;19.34;41.48
35248;BME280;21380;52.194;20.520;2023-04-23T09:50:31;100065.44;;;19.42;41.77
35248;BME280;21380;52.194;20.520;2023-04-23T09:52:58;100047.09;;;19.39;41.80
35248;BME280;21380;52.194;20.520;2023-04-23T09:55:37;100057.56;;;19.45;42.00
35248;BME280;21380;52.194;20.520;2023-04-23T09:58:04;100046.25;;;19.40;42.10
35248;BME280;21380;52.194;20.520;2023-04-23T10:00:33;100035.78;;;19.40;42.42
35248;BME280;21380;52.194;20.520;2023-04-23T10:02:59;100048.84;;;19.46;42.53
35248;BME280;21380;52.194;20.520;2023-04-23T10:05:26;100038.41;;;19.44;42.38
35248;BME280;21380;52.194;20.520;2023-04-23T10:07:54;100040.13;;;19.47;42.50
35248;BME280;21380;52.194;20.520;2023-04-23T10:10:21;100027.06;;;19.42;42.65
35248;BME280;21380;52.194;20.520;2023-04-23T10:12:47;100036.63;;;19.51;42.71
35248;BME280;21380;52.194;20.520;2023-04-23T10:15:13;100044.47;;;19.51;43.00
35248;BME280;21380;52.194;20.520;2023-04-23T10:17:40;100023.53;;;19.51;42.79
35248;BME280;21380;52.194;20.520;2023-04-23T10:20:07;100028.75;;;19.53;43.02
35248;BME280;21380;52.194;20.520;2023-04-23T10:22:34;100040.13;;;19.53;42.99
35248;BME280;21380;52.194;20.520;2023-04-23T10:25:09;100023.53;;;19.53;43.24
35248;BME280;21380;52.194;20.520;2023-04-23T10:27:43;100023.53;;;19.53;43.25
35248;BME280;21380;52.194;20.520;2023-04-23T10:30:11;100018.31;;;19.50;43.41
35248;BME280;21380;52.194;20.520;2023-04-23T10:32:38;100021.81;;;19.53;43.39
35248;BME280;21380;52.194;20.520;2023-04-23T10:35:05;100025.28;;;19.54;43.62
35248;BME280;21380;52.194;20.520;2023-04-23T10:37:33;100016.56;;;19.55;43.73
35248;BME280;21380;52.194;20.520;2023-04-23T10:40:06;99993.94;;;19.40;43.68
35248;BME280;21380;52.194;20.520;2023-04-23T10:42:34;100008.72;;;19.53;43.73
35248;BME280;21380;52.194;20.520;2023-04-23T10:45:00;100003.47;;;19.55;43.87
35248;BME280;21380;52.194;20.520;2023-04-23T10:47:26;99998.25;;;19.49;43.82
35248;BME280;21380;52.194;20.520;2023-04-23T10:49:52;100002.59;;;19.53;44.07
35248;BME280;21380;52.194;20.520;2023-04-23T10:52:18;99993.03;;;19.53;43.95
35248;BME280;21380;52.194;20.520;2023-04-23T10:54:56;99983.44;;;19.46;44.01
35248;BME280;21380;52.194;20.520;2023-04-23T10:57:24;99998.25;;;19.55;44.28
35248;BME280;21380;52.194;20.520;2023-04-23T10:59:52;99994.75;;;19.56;44.21
35248;BME280;21380;52.194;20.520;2023-04-23T11:02:19;99976.50;;;19.43;44.38
35248;BME280;21380;52.194;20.520;2023-04-23T11:04:58;99992.16;;;19.56;44.30
35248;BME280;21380;52.194;20.520;2023-04-23T11:07:34;99977.31;;;19.50;44.54
35248;BME280;21380;52.194;20.520;2023-04-23T11:10:11;99969.50;;;19.52;44.67
35248;BME280;21380;52.194;20.520;2023-04-23T11:12:38;99967.75;;;19.52;44.88
35248;BME280;21380;52.194;20.520;2023-04-23T11:15:11;99979.06;;;19.57;44.80
35248;BME280;21380;52.194;20.520;2023-04-23T11:22:40;99977.31;;;19.56;44.82
35248;BME280;21380;52.194;20.520;2023-04-23T11:25:14;99977.31;;;19.59;45.05
35248;BME280;21380;52.194;20.520;2023-04-23T11:27:42;99970.34;;;19.58;45.34
35248;BME280;21380;52.194;20.520;2023-04-23T11:30:16;99964.25;;;19.53;45.36
35248;BME280;21380;52.194;20.520;2023-04-23T11:32:48;99956.38;;;19.56;45.55
35248;BME280;21380;52.194;20.520;2023-04-23T11:35:14;99966.84;;;19.59;45.47
35248;BME280;21380;52.194;20.520;2023-04-23T11:37:42;99953.78;;;19.55;45.38
35248;BME280;21380;52.194;20.520;2023-04-23T11:40:10;99969.44;;;19.61;45.74
35248;BME280;21380;52.194;20.520;2023-04-23T11:42:48;99964.22;;;19.58;45.62
35248;BME280;21380;52.194;20.520;2023-04-23T11:45:28;99949.41;;;19.55;45.82
35248;BME280;21380;52.194;20.520;2023-04-23T11:47:56;99961.63;;;19.59;45.90
35248;BME280;21380;52.194;20.520;2023-04-23T11:50:30;99954.63;;;19.58;45.94
35248;BME280;21380;52.194;20.520;2023-04-23T11:53:03;99951.13;;;19.58;45.99
35248;BME280;21380;52.194;20.520;2023-04-23T11:55:30;99961.63;;;19.59;45.91
35248;BME280;21380;52.194;20.520;2023-04-23T11:57:56;99955.50;;;19.59;45.75
35248;BME280;21380;52.194;20.520;2023-04-23T12:00:24;99952.00;;;19.60;46.02
35248;BME280;21380;52.194;20.520;2023-04-23T12:02:58;99946.81;;;19.57;45.97
35248;BME280;21380;52.194;20.520;2023-04-23T12:05:29;99940.69;;;19.56;46.04
35248;BME280;21380;52.194;20.520;2023-04-23T12:08:17;99948.53;;;19.59;46.17
35248;BME280;21380;52.194;20.520;2023-04-23T12:10:50;99938.06;;;19.56;46.01
35248;BME280;21380;52.194;20.520;2023-04-23T12:13:17;99938.94;;;19.58;46.15
35248;BME280;21380;52.194;20.520;2023-04-23T12:15:58;99937.19;;;19.59;46.06
35248;BME280;21380;52.194;20.520;2023-04-23T12:18:31;99938.06;;;19.59;46.00
35248;BME280;21380;52.194;20.520;2023-04-23T12:21:04;99937.19;;;19.59;46.18
35248;BME280;21380;52.194;20.520;2023-04-23T12:23:30;99929.34;;;19.57;46.27
35248;BME280;21380;52.194;20.520;2023-04-23T12:25:58;99933.69;;;19.55;45.90
35248;BME280;21380;52.194;20.520;2023-04-23T12:28:24;99930.22;;;19.59;46.21
35248;BME280;21380;52.194;20.520;2023-04-23T12:30:51;99917.19;;;19.52;46.30
35248;BME280;21380;52.194;20.520;2023-04-23T12:33:17;99915.41;;;19.54;46.49
35248;BME280;21380;52.194;20.520;2023-04-23T12:35:48;99927.59;;;19.58;46.32
35248;BME280;21380;52.194;20.520;2023-04-23T12:38:27;99914.50;;;19.58;46.66
35248;BME280;21380;52.194;20.520;2023-04-23T12:40:56;99911.03;;;19.56;46.53
35248;BME280;21380;52.194;20.520;2023-04-23T12:43:23;99916.25;;;19.57;46.41
35248;BME280;21380;52.194;20.520;2023-04-23T12:45:49;99905.84;;;19.54;46.61
35248;BME280;21380;52.194;20.520;2023-04-23T12:48:16;99906.66;;;19.58;46.44
35248;BME280;21380;52.194;20.520;2023-04-23T12:50:45;99906.66;;;19.58;46.41
35248;BME280;21380;52.194;20.520;2023-04-23T12:53:12;99903.19;;;19.56;46.42
35248;BME280;21380;52.194;20.520;2023-04-23T12:55:38;99905.78;;;19.57;46.57
35248;BME280;21380;52.194;20.520;2023-04-23T12:58:04;99894.47;;;19.58;46.84
35248;BME280;21380;52.194;20.520;2023-04-23T13:00:30;99884.88;;;19.53;46.80
35248;BME280;21380;52.194;20.520;2023-04-23T13:02:56;99879.66;;;19.51;46.52
35248;BME280;21380;52.194;20.520;2023-04-23T13:05:22;99864.88;;;19.47;46.61
35248;BME280;21380;52.194;20.520;2023-04-23T13:07:48;99878.81;;;19.51;46.68
35248;BME280;21380;52.194;20.520;2023-04-23T13:10:14;99873.56;;;19.54;46.77
35248;BME280;21380;52.194;20.520;2023-04-23T13:12:41;99871.81;;;19.54;46.64
35248;BME280;21380;52.194;20.520;2023-04-23T13:15:08;99864.84;;;19.50;46.69
35248;BME280;21380;52.194;20.520;2023-04-23T13:17:35;99872.66;;;19.56;46.72
35248;BME280;21380;52.194;20.520;2023-04-23T13:20:01;99854.44;;;19.46;46.93
35248;BME280;21380;52.194;20.520;2023-04-23T13:22:27;99850.88;;;19.53;46.87
35248;BME280;21380;52.194;20.520;2023-04-23T13:24:54;99852.66;;;19.51;46.91
35248;BME280;21380;52.194;20.520;2023-04-23T13:27:26;99848.28;;;19.50;46.99
35248;BME280;21380;52.194;20.520;2023-04-23T13:29:52;99832.66;;;19.39;47.07
35248;BME280;21380;52.194;20.520;2023-04-23T13:32:20;99850.00;;;19.58;46.70
35248;BME280;21380;52.194;20.520;2023-04-23T13:34:48;99849.13;;;19.55;46.91
35248;BME280;21380;52.194;20.520;2023-04-23T13:37:14;99842.16;;;19.54;46.93
35248;BME280;21380;52.194;20.520;2023-04-23T13:39:40;99845.66;;;19.54;47.15
35248;BME280;21380;52.194;20.520;2023-04-23T13:42:06;99843.91;;;19.50;47.22
35248;BME280;21380;52.194;20.520;2023-04-23T13:44:32;99850.84;;;19.59;47.14
35248;BME280;21380;52.194;20.520;2023-04-23T13:46:58;99833.47;;;19.52;47.11
35248;BME280;21380;52.194;20.520;2023-04-23T13:49:25;99851.72;;;19.59;47.06
35248;BME280;21380;52.194;20.520;2023-04-23T13:51:52;99836.94;;;19.52;46.95
35248;BME280;21380;52.194;20.520;2023-04-23T13:54:19;99829.06;;;19.58;47.15
35248;BME280;21380;52.194;20.520;2023-04-23T13:56:45;99835.16;;;19.60;47.11
35248;BME280;21380;52.194;20.520;2023-04-23T13:59:11;99828.19;;;19.56;47.09
35248;BME280;21380;52.194;20.520;2023-04-23T14:01:37;99816.88;;;19.56;47.00
35248;BME280;21380;52.194;20.520;2023-04-23T14:04:04;99818.56;;;19.61;47.10
35248;BME280;21380;52.194;20.520;2023-04-23T14:06:30;99821.19;;;19.60;47.05
35248;BME280;21380;52.194;20.520;2023-04-23T14:08:56;99820.31;;;19.63;47.17
35248;BME280;21380;52.194;20.520;2023-04-23T14:11:21;99815.06;;;19.63;47.31
35248;BME280;21380;52.194;20.520;2023-04-23T14:13:48;99808.97;;;19.62;47.19
35248;BME280;21380;52.194;20.520;2023-04-23T14:16:13;99805.50;;;19.63;47.15
35248;BME280;21380;52.194;20.520;2023-04-23T14:18:40;99804.63;;;19.59;47.19
35248;BME280;21380;52.194;20.520;2023-04-23T14:21:06;99810.72;;;19.63;47.47
35248;BME280;21380;52.194;20.520;2023-04-23T14:24:01;99804.59;;;19.64;47.38
35248;BME280;21380;52.194;20.520;2023-04-23T14:26:34;99757.72;;;19.35;47.35
35248;BME280;21380;52.194;20.520;2023-04-23T14:32:04;99792.41;;;19.61;47.43
35248;BME280;21380;52.194;20.520;2023-04-23T14:34:31;99802.81;;;19.68;47.65
35248;BME280;21380;52.194;20.520;2023-04-23T14:36:59;99792.41;;;19.65;47.39
35248;BME280;21380;52.194;20.520;2023-04-23T14:39:25;99797.59;;;19.69;47.30
35248;BME280;21380;52.194;20.520;2023-04-23T14:41:51;99802.81;;;19.71;47.53
35248;BME280;21380;52.194;20.520;2023-04-23T14:44:17;99781.94;;;19.61;47.73
35248;BME280;21380;52.194;20.520;2023-04-23T14:46:43;99798.44;;;19.71;47.52
35248;BME280;21380;52.194;20.520;2023-04-23T14:49:10;99787.13;;;19.66;47.64
35248;BME280;21380;52.194;20.520;2023-04-23T14:51:35;99801.03;;;19.73;47.58
35248;BME280;21380;52.194;20.520;2023-04-23T14:54:02;99786.22;;;19.70;47.81
35248;BME280;21380;52.194;20.520;2023-04-23T14:56:28;99784.53;;;19.69;47.57
35248;BME280;21380;52.194;20.520;2023-04-23T14:58:54;99793.19;;;19.73;47.57
35248;BME280;21380;52.194;20.520;2023-04-23T15:01:20;99786.22;;;19.75;47.62
35248;BME280;21380;52.194;20.520;2023-04-23T15:03:46;99792.28;;;19.75;47.90
35248;BME280;21380;52.194;20.520;2023-04-23T15:06:12;99789.69;;;19.75;47.88
35248;BME280;21380;52.194;20.520;2023-04-23T15:08:38;99787.06;;;19.77;47.76
35248;BME280;21380;52.194;20.520;2023-04-23T15:11:04;99777.53;;;19.70;47.84
35248;BME280;21380;52.194;20.520;2023-04-23T15:13:51;99777.47;;;19.73;47.66
35248;BME280;21380;52.194;20.520;2023-04-23T15:18:56;99772.22;;;19.79;47.85
35248;BME280;21380;52.194;20.520;2023-04-23T15:21:23;99779.19;;;19.80;47.88
35248;BME280;21380;52.194;20.520;2023-04-23T15:23:49;99772.22;;;19.77;47.84
35248;BME280;21380;52.194;20.520;2023-04-23T15:26:15;99773.94;;;19.82;47.83
35248;BME280;21380;52.194;20.520;2023-04-23T15:28:41;99781.81;;;19.83;47.88
35248;BME280;21380;52.194;20.520;2023-04-23T15:31:08;99769.59;;;19.82;47.72
35248;BME280;21380;52.194;20.520;2023-04-23T15:33:34;99764.34;;;19.82;47.73
35248;BME280;21380;52.194;20.520;2023-04-23T15:36:00;99773.09;;;19.86;47.68
35248;BME280;21380;52.194;20.520;2023-04-23T15:38:26;99755.63;;;19.80;47.72
35248;BME280;21380;52.194;20.520;2023-04-23T15:40:54;99753.88;;;19.82;47.80
35248;BME280;21380;52.194;20.520;2023-04-23T15:43:20;99759.13;;;19.84;47.92
35248;BME280;21380;52.194;20.520;2023-04-23T15:45:46;99760.84;;;19.89;47.77
35248;BME280;21380;52.194;20.520;2023-04-23T15:48:13;99770.47;;;19.86;47.68
35248;BME280;21380;52.194;20.520;2023-04-23T15:50:41;99764.34;;;19.85;47.79
35248;BME280;21380;52.194;20.520;2023-04-23T15:53:08;99755.63;;;19.86;47.83
35248;BME280;21380;52.194;20.520;2023-04-23T15:55:34;99754.75;;;19.86;47.90
35248;BME280;21380;52.194;20.520;2023-04-23T15:58:00;99759.06;;;19.91;47.78
35248;BME280;21380;52.194;20.520;2023-04-23T16:00:27;99747.78;;;19.85;48.00
35248;BME280;21380;52.194;20.520;2023-04-23T16:02:53;99761.69;;;19.91;47.96
35248;BME280;21380;52.194;20.520;2023-04-23T16:05:19;99751.19;;;19.93;47.94
35248;BME280;21380;52.194;20.520;2023-04-23T16:07:45;99738.16;;;19.85;47.84
35248;BME280;21380;52.194;20.520;2023-04-23T16:10:11;99741.59;;;19.93;48.00
35248;BME280;21380;52.194;20.520;2023-04-23T16:12:38;99745.75;;;20.16;43.82
35248;BME280;21380;52.194;20.520;2023-04-23T16:15:13;99749.56;;;20.68;42.32
35248;BME280;21380;52.194;20.520;2023-04-23T16:17:40;99746.34;;;21.16;40.81
35248;BME280;21380;52.194;20.520;2023-04-23T16:20:06;99725.75;;;21.49;38.45
35248;BME280;21380;52.194;20.520;2023-04-23T16:22:33;99733.97;;;21.85;38.09
35248;BME280;21380;52.194;20.520;2023-04-23T16:24:58;99737.47;;;21.86;38.14
35248;BME280;21380;52.194;20.520;2023-04-23T16:27:25;99729.78;;;21.74;38.53
35248;BME280;21380;52.194;20.520;2023-04-23T16:29:51;99731.66;;;21.65;39.27
35248;BME280;21380;52.194;20.520;2023-04-23T16:32:19;99739.66;;;21.54;39.82
35248;BME280;21380;52.194;20.520;2023-04-23T16:34:45;99732.88;;;21.43;40.27
35248;BME280;21380;52.194;20.520;2023-04-23T16:37:12;99729.56;;;21.30;40.64
35248;BME280;21380;52.194;20.520;2023-04-23T16:39:41;99735.84;;;21.18;41.51
35248;BME280;21380;52.194;20.520;2023-04-23T16:42:08;99740.34;;;21.08;41.63
35248;BME280;21380;52.194;20.520;2023-04-23T16:44:34;99730.00;;;20.99;42.38
35248;BME280;21380;52.194;20.520;2023-04-23T16:47:00;99738.78;;;20.93;42.67
35248;BME280;21380;52.194;20.520;2023-04-23T16:49:26;99720.63;;;20.79;42.93
35248;BME280;21380;52.194;20.520;2023-04-23T16:51:52;99726.78;;;20.75;43.09
35248;BME280;21380;52.194;20.520;2023-04-23T16:54:18;99720.75;;;20.67;43.40
35248;BME280;21380;52.194;20.520;2023-04-23T16:56:44;99726.84;;;20.69;43.38
35248;BME280;21380;52.194;20.520;2023-04-23T16:59:11;99718.19;;;20.61;43.65
35248;BME280;21380;52.194;20.520;2023-04-23T17:01:40;99701.72;;;20.52;43.70
35248;BME280;21380;52.194;20.520;2023-04-23T17:04:05;99730.47;;;20.58;43.81
35248;BME280;21380;52.194;20.520;2023-04-23T17:06:32;99718.31;;;20.51;43.86
35248;BME280;21380;52.194;20.520;2023-04-23T17:09:00;99726.16;;;20.53;44.00
35248;BME280;21380;52.194;20.520;2023-04-23T17:11:28;99724.44;;;20.50;44.20
35248;BME280;21380;52.194;20.520;2023-04-23T17:13:54;99726.34;;;20.34;43.27
35248;BME280;21380;52.194;20.520;2023-04-23T17:16:21;99722.09;;;20.27;43.61
35248;BME280;21380;52.194;20.520;2023-04-23T17:18:49;99722.91;;;20.29;43.63
35248;BME280;21380;52.194;20.520;2023-04-23T17:21:15;99721.13;;;20.33;43.87
35248;BME280;21380;52.194;20.520;2023-04-23T17:23:41;99712.47;;;20.28;43.97
35248;BME280;21380;52.194;20.520;2023-04-23T17:26:07;99722.03;;;20.30;44.19
35248;BME280;21380;52.194;20.520;2023-04-23T17:28:33;99711.59;;;20.25;44.15
35248;BME280;21380;52.194;20.520;2023-04-23T17:31:01;99716.84;;;20.27;44.39
35248;BME280;21380;52.194;20.520;2023-04-23T17:33:27;99716.84;;;20.25;44.47
35248;BME280;21380;52.194;20.520;2023-04-23T17:35:53;99700.41;;;20.13;44.43
35248;BME280;21380;52.194;20.520;2023-04-23T17:38:22;99703.00;;;20.14;44.60
35248;BME280;21380;52.194;20.520;2023-04-23T17:40:53;99710.19;;;19.93;44.11
35248;BME280;21380;52.194;20.520;2023-04-23T17:43:19;99703.63;;;19.40;44.78
35248;BME280;21380;52.194;20.520;2023-04-23T17:45:46;99706.38;;;19.20;45.56
35248;BME280;21380;52.194;20.520;2023-04-23T17:48:14;99708.13;;;19.19;45.62
35248;BME280;21380;52.194;20.520;2023-04-23T17:50:41;99693.19;;;19.34;45.27
35248;BME280;21380;52.194;20.520;2023-04-23T17:53:07;99698.34;;;19.46;44.95
35248;BME280;21380;52.194;20.520;2023-04-23T17:55:33;99697.41;;;19.55;44.77
35248;BME280;21380;52.194;20.520;2023-04-23T17:57:59;99694.78;;;19.55;44.93
35248;BME280;21380;52.194;20.520;2023-04-23T18:00:41;99709.53;;;19.64;44.73
35248;BME280;21380;52.194;20.520;2023-04-23T18:03:08;99686.94;;;19.55;44.81
35248;BME280;21380;52.194;20.520;2023-04-23T18:05:35;99700.78;;;19.66;45.00
35248;BME280;21380;52.194;20.520;2023-04-23T18:08:01;99705.19;;;19.61;44.97
35248;BME280;21380;52.194;20.520;2023-04-23T18:10:28;99707.75;;;19.69;45.04
35248;BME280;21380;52.194;20.520;2023-04-23T18:12:54;99702.56;;;19.66;45.28
35248;BME280;21380;52.194;20.520;2023-04-23T18:15:20;99708.63;;;19.68;45.15
35248;BME280;21380;52.194;20.520;2023-04-23T18:17:46;99711.25;;;19.69;45.32
35248;BME280;21380;52.194;20.520;2023-04-23T18:20:13;99711.25;;;19.69;45.31
35248;BME280;21380;52.194;20.520;2023-04-23T18:22:39;99690.38;;;19.60;45.46
35248;BME280;21380;52.194;20.520;2023-04-23T18:25:07;99706.00;;;19.68;45.63
35248;BME280;21380;52.194;20.520;2023-04-23T18:27:34;99702.53;;;19.69;45.88
35248;BME280;21380;52.194;20.520;2023-04-23T18:30:00;99711.25;;;19.69;45.97
35248;BME280;21380;52.194;20.520;2023-04-23T18:32:34;99714.75;;;19.68;46.23
35248;BME280;21380;52.194;20.520;2023-04-23T18:35:01;99701.69;;;19.64;46.26
35248;BME280;21380;52.194;20.520;2023-04-23T18:37:47;99717.38;;;19.68;46.31
35248;BME280;21380;52.194;20.520;2023-04-23T18:40:13;99708.63;;;19.68;46.47
35248;BME280;21380;52.194;20.520;2023-04-23T18:42:39;99702.56;;;19.63;46.60
35248;BME280;21380;52.194;20.520;2023-04-23T18:45:05;99695.63;;;19.60;46.70
35248;BME280;21380;52.194;20.520;2023-04-23T18:47:37;99700.78;;;19.66;46.55
35248;BME280;21380;52.194;20.520;2023-04-23T18:50:08;99711.28;;;19.65;46.75
35248;BME280;21380;52.194;20.520;2023-04-23T18:52:34;99698.22;;;19.63;46.82
35248;BME280;21380;52.194;20.520;2023-04-23T18:55:01;99713.00;;;19.64;46.81
35248;BME280;21380;52.194;20.520;2023-04-23T18:57:26;99710.41;;;19.64;46.74
35248;BME280;21380;52.194;20.520;2023-04-23T18:59:53;99704.34;;;19.60;46.66
35248;BME280;21380;52.194;20.520;2023-04-23T19:02:19;99693.88;;;19.59;46.70
35248;BME280;21380;52.194;20.520;2023-04-23T19:04:45;99689.59;;;19.52;46.92
35248;BME280;21380;52.194;20.520;2023-04-23T19:07:11;99711.28;;;19.61;46.80
35248;BME280;21380;52.194;20.520;2023-04-23T19:09:37;99708.69;;;19.61;47.04
35248;BME280;21380;52.194;20.520;2023-04-23T19:12:03;99710.44;;;19.61;46.89
35248;BME280;21380;52.194;20.520;2023-04-23T19:14:29;99693.06;;;19.49;47.10
35248;BME280;21380;52.194;20.520;2023-04-23T19:16:56;99711.31;;;19.60;47.00
35248;BME280;21380;52.194;20.520;2023-04-23T19:19:22;99687.84;;;19.49;47.01
35248;BME280;21380;52.194;20.520;2023-04-23T19:21:48;99707.84;;;19.59;47.08
35248;BME280;21380;52.194;20.520;2023-04-23T19:24:15;99704.38;;;19.53;47.31
35248;BME280;21380;52.194;20.520;2023-04-23T19:26:41;99702.63;;;19.55;47.17
35248;BME280;21380;52.194;20.520;2023-04-23T19:29:07;99702.59;;;19.58;47.25
35248;BME280;21380;52.194;20.520;2023-04-23T19:31:34;99709.59;;;19.56;47.28
35248;BME280;21380;52.194;20.520;2023-04-23T19:34:02;99691.38;;;19.48;47.26
35248;BME280;21380;52.194;20.520;2023-04-23T19:36:28;99693.94;;;19.51;47.37
35248;BME280;21380;52.194;20.520;2023-04-23T19:38:54;99694.81;;;19.50;47.34
35248;BME280;21380;52.194;20.520;2023-04-23T19:41:19;99707.00;;;19.54;47.53
35248;BME280;21380;52.194;20.520;2023-04-23T19:43:47;99734.03;;;19.53;47.61
35248;BME280;21380;52.194;20.520;2023-04-23T19:46:14;99748.84;;;19.53;47.49
35248;BME280;21380;52.194;20.520;2023-04-23T19:48:40;99744.53;;;19.49;47.17
35248;BME280;21380;52.194;20.520;2023-04-23T19:51:06;99716.69;;;19.43;47.30
35248;BME280;21380;52.194;20.520;2023-04-23T19:53:34;99714.06;;;19.43;46.89
35248;BME280;21380;52.194;20.520;2023-04-23T19:56:00;99730.63;;;19.40;47.38
35248;BME280;21380;52.194;20.520;2023-04-23T19:58:26;99741.94;;;19.47;47.40
35248;BME280;21380;52.194;20.520;2023-04-23T20:00:51;99726.25;;;19.47;47.38
35248;BME280;21380;52.194;20.520;2023-04-23T20:03:18;99723.63;;;19.47;47.50
35248;BME280;21380;52.194;20.520;2023-04-23T20:05:44;99719.28;;;19.46;47.52
35248;BME280;21380;52.194;20.520;2023-04-23T20:08:10;99712.31;;;19.40;47.49
35248;BME280;21380;52.194;20.520;2023-04-23T20:10:49;99707.09;;;19.39;47.56
35248;BME280;21380;52.194;20.520;2023-04-23T20:13:15;99714.03;;;19.46;47.59
35248;BME280;21380;52.194;20.520;2023-04-23T20:15:48;99701.88;;;19.39;47.66
35248;BME280;21380;52.194;20.520;2023-04-23T20:18:18;99709.69;;;19.45;47.81
35248;BME280;21380;52.194;20.520;2023-04-23T20:20:44;99710.56;;;19.44;47.58
35248;BME280;21380;52.194;20.520;2023-04-23T20:23:10;99709.72;;;19.42;47.86
35248;BME280;21380;52.194;20.520;2023-04-23T20:25:36;99687.16;;;19.27;47.81
35248;BME280;21380;52.194;20.520;2023-04-23T20:28:02;99713.19;;;19.42;48.04
35248;BME280;21380;52.194;20.520;2023-04-23T20:30:28;99708.84;;;19.40;48.15
35248;BME280;21380;52.194;20.520;2023-04-23T20:32:54;99696.66;;;19.39;48.19
35248;BME280;21380;52.194;20.520;2023-04-23T20:35:19;99668.03;;;19.19;48.18
35248;BME280;21380;52.194;20.520;2023-04-23T20:37:46;99693.19;;;19.38;48.32
35248;BME280;21380;52.194;20.520;2023-04-23T20:40:12;99693.19;;;19.37;48.14
35248;BME280;21380;52.194;20.520;2023-04-23T20:42:39;99698.38;;;19.40;48.13
35248;BME280;21380;52.194;20.520;2023-04-23T20:45:07;99693.19;;;19.38;48.13
35248;BME280;21380;52.194;20.520;2023-04-23T20:47:34;99698.44;;;19.37;48.21
35248;BME280;21380;52.194;20.520;2023-04-23T20:49:59;99674.06;;;19.25;48.30
35248;BME280;21380;52.194;20.520;2023-04-23T20:52:25;99698.44;;;19.37;48.15
35248;BME280;21380;52.194;20.520;2023-04-23T20:54:51;99703.66;;;19.37;48.48
35248;BME280;21380;52.194;20.520;2023-04-23T20:57:17;99693.25;;;19.31;48.55
35248;BME280;21380;52.194;20.520;2023-04-23T20:59:43;99694.97;;;19.28;48.58
35248;BME280;21380;52.194;20.520;2023-04-23T21:02:09;99702.78;;;19.35;48.35
35248;BME280;21380;52.194;20.520;2023-04-23T21:04:37;99690.59;;;19.29;48.40
35248;BME280;21380;52.194;20.520;2023-04-23T21:07:03;99685.34;;;19.34;48.46
35248;BME280;21380;52.194;20.520;2023-04-23T21:09:29;99671.47;;;19.25;48.53
35248;BME280;21380;52.194;20.520;2023-04-23T21:11:55;99688.00;;;19.32;48.71
35248;BME280;21380;52.194;20.520;2023-04-23T21:14:21;99668.91;;;19.19;48.50
35248;BME280;21380;52.194;20.520;2023-04-23T21:16:47;99700.19;;;19.32;48.60
35248;BME280;21380;52.194;20.520;2023-04-23T21:19:13;99701.09;;;19.27;48.58
35248;BME280;21380;52.194;20.520;2023-04-23T21:21:39;99711.59;;;19.24;48.64
35248;BME280;21380;52.194;20.520;2023-04-23T21:24:05;99711.53;;;19.29;48.61
35248;BME280;21380;52.194;20.520;2023-04-23T21:26:31;99703.72;;;19.26;48.67
35248;BME280;21380;52.194;20.520;2023-04-23T21:28:57;99698.50;;;19.26;48.76
35248;BME280;21380;52.194;20.520;2023-04-23T21:31:44;99706.31;;;19.27;48.71
35248;BME280;21380;52.194;20.520;2023-04-23T21:34:10;99700.25;;;19.24;48.78
35248;BME280;21380;52.194;20.520;2023-04-23T21:36:36;99701.09;;;19.26;48.66
35248;BME280;21380;52.194;20.520;2023-04-23T21:39:02;99701.97;;;19.25;48.73
35248;BME280;21380;52.194;20.520;2023-04-23T21:41:29;99698.50;;;19.24;48.92
35248;BME280;21380;52.194;20.520;2023-04-23T21:43:55;99700.25;;;19.24;48.95
35248;BME280;21380;52.194;20.520;2023-04-23T21:46:22;99702.00;;;19.23;48.83
35248;BME280;21380;52.194;20.520;2023-04-23T21:48:48;99693.31;;;19.18;48.79
35248;BME280;21380;52.194;20.520;2023-04-23T21:51:15;99703.75;;;19.21;49.02
35248;BME280;21380;52.194;20.520;2023-04-23T21:53:40;99700.28;;;19.21;48.90
35248;BME280;21380;52.194;20.520;2023-04-23T21:56:06;99701.16;;;19.15;48.97
35248;BME280;21380;52.194;20.520;2023-04-23T21:58:32;99694.19;;;19.14;48.98
35248;BME280;21380;52.194;20.520;2023-04-23T22:00:59;99698.53;;;19.15;49.35
35248;BME280;21380;52.194;20.520;2023-04-23T22:03:25;99693.34;;;19.12;49.24
35248;BME280;21380;52.194;20.520;2023-04-23T22:05:51;99691.59;;;19.16;49.33
35248;BME280;21380;52.194;20.520;2023-04-23T22:08:17;99693.31;;;19.17;48.79
35248;BME280;21380;52.194;20.520;2023-04-23T22:10:43;99695.06;;;19.16;49.26
35248;BME280;21380;52.194;20.520;2023-04-23T22:13:09;99688.09;;;19.15;48.98
35248;BME280;21380;52.194;20.520;2023-04-23T22:15:38;99683.75;;;19.12;49.20
35248;BME280;21380;52.194;20.520;2023-04-23T22:18:04;99690.72;;;19.15;49.02
35248;BME280;21380;52.194;20.520;2023-04-23T22:20:30;99691.63;;;19.11;49.28
35248;BME280;21380;52.194;20.520;2023-04-23T22:22:56;99695.09;;;19.13;49.21
35248;BME280;21380;52.194;20.520;2023-04-23T22:25:22;99693.34;;;19.09;49.40
35248;BME280;21380;52.194;20.520;2023-04-23T22:27:48;99698.59;;;19.12;49.28